Saturday, October 25, 2014, 4:41 AM EDT

KMUI, Muir Army Air Field / Indiantown

Location: Jonestown, PA, United States Lat: 40.433
Local Time: 4:41 AM EDT ( 8:41 GMT) Lon: -76.567
Time Zone: US/Eastern Elev: 488 ft

Show me the last for .
Show Decoded

2014-10-25 03:58 METAR KMUI 250758Z AUTO VRB04KT 10SM CLR 13/05 A2992 RMK AO2 SLP134 T01290046 $
                 =
2014-10-25 02:58 METAR KMUI 250658Z AUTO VRB05KT 10SM CLR 13/05 A2992 RMK AO2 SLP134 T01290047 $
                 =
2014-10-25 01:58 METAR KMUI 250558Z AUTO 26006KT 10SM CLR 13/04 A2993 RMK AO2 SLP137 T01270040
                 10161 20127 50001 $ =
2014-10-25 00:58 METAR KMUI 250458Z AUTO 26006KT 10SM CLR 14/04 A2993 RMK AO2 SLP137 T01370035
                 401980123 $ =
2014-10-24 23:58 METAR KMUI 250358Z AUTO 29007KT 10SM CLR 14/04 A2992 RMK AO2 SLP134 T01390040 $
                 =
2014-10-24 21:58 METAR KMUI 250158Z AUTO 27008G15KT 10SM CLR 15/02 A2991 RMK AO2 SLP131 T01540024
                 $ =
2014-10-24 20:58 METAR KMUI 250058Z AUTO 28009KT 10SM CLR 16/03 A2990 RMK AO2 SLP127 T01570026 $
                 =
2014-10-24 19:58 METAR KMUI 242358Z AUTO 28007KT 10SM CLR 16/02 A2989 RMK AO2 SLP124 T01630024
                 10198 20163 52013 $ =
2014-10-24 18:58 METAR KMUI 242258Z AUTO 26009KT 10SM CLR 17/03 A2988 RMK AO2 SLP121 T01660031 $
                 =
2014-10-24 17:58 METAR KMUI 242158Z AUTO 26009KT 10SM CLR 18/01 A2986 RMK AO2 SLP113 T01800013 $
                 =
2014-10-24 16:58 METAR KMUI 242058Z AUTO 30009G18KT 280V360 10SM CLR 19/00 A2985 RMK AO2 SLP110
                 T01880001 55006 $ =
2014-10-24 15:58 METAR KMUI 241958Z AUTO 30009G18KT 10SM CLR 19/02 A2986 RMK AO2 SLP113 T01890016
                 $ =
2014-10-24 15:35 METAR KMUI 241935Z AUTO 32010G20KT 10SM CLR 19/02 A2985 RMK AO2 WSHFT 32 =
2014-10-24 14:59 METAR KMUI 241859Z AUTO 32014G18KT 260V030 10SM CLR 20/04 A2985 RMK AO2 WSHFT 58
                 $ =
2014-10-24 14:58 METAR KMUI 241858Z AUTO 27011G16KT 10SM CLR 20/05 A2986 RMK AO2 SLP113 T01960045
                 $ =
2014-10-24 13:58 METAR KMUI 241758Z AUTO 31007G22KT 280V350 10SM CLR 19/06 A2987 RMK AO2 SLP117
                 57018 =
2014-10-24 12:58 METAR KMUI 241658Z AUTO 32009G23KT 290V360 10SM CLR 19/06 A2989 RMK AO2 PK WND
                 34028/17 SLP123 T01850062 $ =
2014-10-24 11:58 METAR KMUI 241558Z AUTO 32014G21KT 10SM CLR 17/06 A2992 RMK AO2 SLP134 T01680061
                 $ =
2014-10-24 11:55 METAR KMUI 241555Z AUTO 34012G21KT 320V030 10SM CLR 17/06 A2992 RMK AO2 WSHFT 46
                 =
2014-10-24 10:58 METAR KMUI 241458Z AUTO 32009G18KT 270V020 10SM CLR 16/06 A2993 RMK AO2 SLP137
                 T01640063 50005 $ =
2014-10-24 10:56 METAR KMUI 241456Z AUTO 32012G18KT 280V020 10SM CLR 16/06 A2993 RMK AO2 WSHFT 54
                 $ =
2014-10-24 10:28 METAR KMUI 241428Z AUTO 28011G21KT 230V010 10SM CLR 16/07 A2993 RMK AO2 WSHFT 25
                 =
2014-10-24 09:58 METAR KMUI 241358Z AUTO 27009G20KT 230V310 10SM CLR 15/07 A2993 RMK AO2 SLP138
                 T01520073 $ =
2014-10-24 08:58 METAR KMUI 241258Z AUTO 25007KT 10SM CLR 14/08 A2993 RMK AO2 SLP138 T01370077 $
                 =
2014-10-24 07:58 METAR KMUI 241158Z AUTO VRB04KT 10SM CLR 12/07 A2991 RMK AO2 SLP132 T01240074
                 10141 20123 50006 $ =
2014-10-24 06:58 METAR KMUI 241058Z AUTO VRB06KT 10SM BKN034 13/08 A2991 RMK AO2 SLP132 T01320075
                 $ =
2014-10-24 05:58 METAR KMUI 240958Z AUTO 32002KT 10SM OVC033 13/08 A2991 RMK AO2 SLP131 T01340079
                 $ =
2014-10-24 04:58 METAR KMUI 240858Z AUTO 34007G16KT 10SM BKN034 13/08 A2989 RMK AO2 SLP124
                 T01320076 51008 $ =

Support USWX by starting your Amazon purchase here.